SILO ALERT LOG
| Silo ID | Alert Type | Alert Message | Silo Type | Points | Depth (mm) | Strength | Temperature (°C) | Humidity (%) | Height (mm) | Volume (㎥) | Weight (t) | Flag | Time |
|---|---|---|---|---|---|---|---|---|---|---|---|---|---|
| WJWJR01 | Humidity | 습도센서 측정값이 80% 초과 | 평 | 74 | 7640 | 1098 | 24.1 | 88.5 | 0 | 0 | 0 | 0 | 2026-07-17 06:25:59.000 |
| WJWJR01 | Humidity | 습도센서 측정값이 80% 초과 | 평 | 83 | 7710 | 1076 | 24.1 | 88.3 | -70 | -7.917 | 0 | 0 | 2026-07-17 05:26:01.000 |
| WJWJR01 | Humidity | 습도센서 측정값이 80% 초과 | 평 | 76 | 7720 | 1073 | 24.3 | 87.7 | -80 | -9.048 | 0 | 0 | 2026-07-17 04:25:58.000 |
| WJWJR01 | Humidity | 습도센서 측정값이 80% 초과 | 평 | 76 | 7720 | 1056 | 24.7 | 86.9 | -80 | -9.048 | 0 | 0 | 2026-07-17 03:25:55.000 |
| WJWJR01 | Humidity | 습도센서 측정값이 80% 초과 | 평 | 76 | 7690 | 1077 | 25.1 | 86 | -50 | -5.655 | 0 | 0 | 2026-07-17 02:26:01.000 |
| WJWJR01 | Humidity | 습도센서 측정값이 80% 초과 | 평 | 83 | 7700 | 1067 | 25.5 | 84.9 | -60 | -6.786 | 0 | 0 | 2026-07-17 01:26:00.000 |
| WJWJR01 | Humidity | 습도센서 측정값이 80% 초과 | 평 | 84 | 7720 | 1082 | 25.8 | 83.6 | -80 | -9.048 | 0 | 0 | 2026-07-17 00:26:01.000 |
| WJWJR01 | Humidity | 습도센서 측정값이 80% 초과 | 평 | 83 | 7700 | 1073 | 26.4 | 82 | -60 | -6.786 | 0 | 0 | 2026-07-16 23:25:57.000 |
| WJWJR01 | Humidity | 습도센서 측정값이 80% 초과 | 평 | 77 | 7670 | 1108 | 26.9 | 80.1 | -30 | -3.393 | 0 | 0 | 2026-07-16 22:26:03.000 |
| WJWJR01 | Humidity | 습도센서 측정값이 80% 초과 | 평 | 77 | 7620 | 1048 | 25.7 | 83.3 | 19 | 2.262 | 1.43 | 0 | 2026-07-16 09:26:02.000 |
| WJWJR01 | Humidity | 습도센서 측정값이 80% 초과 | 평 | 77 | 7630 | 1084 | 24.1 | 87.5 | 9 | 1.131 | 0.715 | 0 | 2026-07-16 08:25:59.000 |
| WJWJR01 | Humidity | 습도센서 측정값이 80% 초과 | 평 | 77 | 7640 | 1060 | 22.9 | 89.2 | 0 | 0 | 0 | 0 | 2026-07-16 07:26:00.000 |
| WJWJR01 | Humidity | 습도센서 측정값이 80% 초과 | 평 | 74 | 7680 | 1096 | 22.8 | 89.1 | -40 | -4.524 | 0 | 0 | 2026-07-16 06:26:01.000 |
| WJWJR01 | Humidity | 습도센서 측정값이 80% 초과 | 평 | 77 | 7650 | 1092 | 23 | 88.7 | -10 | -1.131 | 0 | 0 | 2026-07-16 05:26:01.000 |
| WJWJR01 | Humidity | 습도센서 측정값이 80% 초과 | 평 | 76 | 7630 | 1061 | 23.2 | 88.1 | 9 | 1.131 | 0.715 | 0 | 2026-07-16 04:26:08.000 |
| WJWJR01 | Humidity | 습도센서 측정값이 80% 초과 | 평 | 77 | 7680 | 1083 | 23.4 | 87.7 | -40 | -4.524 | 0 | 0 | 2026-07-16 03:26:01.000 |
| WJWJR01 | Humidity | 습도센서 측정값이 80% 초과 | 평 | 83 | 7720 | 1081 | 23.8 | 86.9 | -80 | -9.048 | 0 | 0 | 2026-07-16 02:25:57.000 |
| WJWJR01 | Humidity | 습도센서 측정값이 80% 초과 | 평 | 77 | 7640 | 1073 | 24.1 | 86.2 | 0 | 0 | 0 | 0 | 2026-07-16 01:26:00.000 |
| WJWJR01 | Humidity | 습도센서 측정값이 80% 초과 | 평 | 77 | 7640 | 1099 | 24.7 | 85 | 0 | 0 | 0 | 0 | 2026-07-16 00:25:58.000 |
| WJWJR01 | Humidity | 습도센서 측정값이 80% 초과 | 평 | 84 | 7690 | 1080 | 25.3 | 83.7 | -50 | -5.655 | 0 | 0 | 2026-07-15 23:26:02.000 |
[첫 페이지] [29] [30] [31] [32] 33 [34] [35] [36] [37] [마지막 페이지]